createdAt,value
2018-08-06T00:00:43.310Z,99.99
2018-08-06T00:01:43.307Z,99.99
2018-08-06T00:02:43.277Z,99.99
2018-08-06T00:03:43.261Z,99.99
2018-08-06T00:04:43.252Z,99.99
2018-08-06T00:05:43.245Z,99.99
2018-08-06T00:06:43.216Z,99.99
2018-08-06T00:07:43.204Z,99.99
2018-08-06T00:08:43.185Z,99.99
2018-08-06T00:09:43.172Z,99.99
2018-08-06T00:10:43.154Z,99.99
2018-08-06T00:11:43.142Z,99.99
2018-08-06T00:12:43.122Z,99.99
2018-08-06T00:13:43.106Z,99.99
2018-08-06T00:14:43.091Z,99.99
2018-08-06T00:15:43.080Z,99.99
2018-08-06T00:16:43.066Z,99.99
2018-08-06T00:17:43.049Z,99.99
2018-08-06T00:18:43.020Z,99.99
2018-08-06T00:19:43.016Z,99.99
2018-08-06T00:20:43.009Z,99.99
2018-08-06T00:21:42.981Z,99.99
2018-08-06T00:22:42.963Z,99.99
2018-08-06T00:23:42.956Z,99.99
2018-08-06T00:24:42.931Z,99.99
2018-08-06T00:25:42.915Z,99.99
2018-08-06T00:26:42.905Z,99.99
2018-08-06T00:27:42.896Z,99.99
2018-08-06T00:28:42.889Z,99.99
2018-08-06T00:29:42.919Z,99.99
2018-08-06T00:30:42.841Z,99.99
2018-08-06T00:31:42.825Z,99.99
2018-08-06T00:32:42.807Z,99.99
2018-08-06T00:33:42.791Z,99.99
2018-08-06T00:34:42.775Z,99.99
2018-08-06T00:35:42.765Z,99.99
2018-08-06T00:36:42.749Z,99.99
2018-08-06T00:37:42.733Z,99.99
2018-08-06T00:38:42.711Z,99.99
2018-08-06T00:39:42.701Z,99.99
2018-08-06T00:40:42.685Z,99.99
2018-08-06T00:41:42.671Z,99.99
2018-08-06T00:42:42.647Z,99.99
2018-08-06T00:43:42.634Z,99.99
2018-08-06T00:44:42.628Z,99.99
2018-08-06T00:45:42.602Z,99.99
2018-08-06T00:46:42.620Z,99.99
2018-08-06T00:47:42.573Z,99.99
2018-08-06T00:48:42.563Z,99.99
2018-08-06T00:49:42.532Z,99.99
2018-08-06T00:50:42.522Z,99.99
2018-08-06T00:51:42.500Z,99.99
2018-08-06T00:52:42.493Z,99.99
2018-08-06T00:53:42.474Z,99.99
2018-08-06T00:54:42.455Z,99.99
2018-08-06T00:55:42.446Z,99.99
2018-08-06T00:56:42.430Z,99.99
2018-08-06T00:57:42.419Z,99.99
2018-08-06T00:58:42.397Z,99.99
2018-08-06T00:59:42.388Z,99.99
2018-08-06T01:00:42.385Z,99.99
2018-08-06T01:01:42.341Z,99.99
2018-08-06T01:02:42.335Z,99.99
2018-08-06T01:03:42.325Z,99.99
2018-08-06T01:04:42.293Z,99.99
2018-08-06T01:05:42.276Z,99.99
2018-08-06T01:06:42.261Z,99.99
2018-08-06T01:07:42.250Z,99.99
2018-08-06T01:08:42.228Z,99.99
2018-08-06T01:09:42.219Z,99.99
2018-08-06T01:10:42.200Z,99.99
2018-08-06T01:11:42.181Z,99.99
2018-08-06T01:12:42.174Z,99.99
2018-08-06T01:13:42.147Z,99.99
2018-08-06T01:14:42.140Z,99.99
2018-08-06T01:15:42.115Z,99.99
2018-08-06T01:16:42.098Z,99.99
2018-08-06T01:17:42.086Z,99.99
2018-08-06T01:18:42.064Z,99.99
2018-08-06T01:19:42.054Z,99.99
2018-08-06T01:20:42.032Z,99.99
2018-08-06T01:21:42.016Z,99.99
2018-08-06T01:22:41.996Z,99.99
2018-08-06T01:23:41.990Z,99.99
2018-08-06T01:24:41.975Z,99.99
2018-08-06T01:25:41.960Z,99.99
2018-08-06T01:26:41.940Z,99.99
2018-08-06T01:27:41.925Z,99.99
2018-08-06T01:28:41.905Z,99.99
2018-08-06T01:29:41.887Z,99.99
2018-08-06T01:30:41.880Z,99.99
2018-08-06T01:31:41.852Z,99.99
2018-08-06T01:32:41.838Z,99.99
2018-08-06T01:33:41.819Z,99.99
2018-08-06T01:34:41.810Z,99.99
2018-08-06T01:35:41.809Z,99.99
2018-08-06T01:36:41.780Z,99.99
2018-08-06T01:37:41.758Z,99.99
2018-08-06T01:38:41.744Z,99.99
2018-08-06T01:39:41.722Z,99.99
2018-08-06T01:40:41.712Z,99.99
2018-08-06T01:41:41.696Z,99.99
2018-08-06T01:42:41.674Z,99.99
2018-08-06T01:43:41.652Z,99.99
2018-08-06T01:44:41.639Z,99.99
2018-08-06T01:45:41.641Z,99.99
2018-08-06T01:46:41.610Z,99.99
2018-08-06T01:47:41.594Z,99.99
2018-08-06T01:48:41.581Z,99.99
2018-08-06T01:49:41.561Z,99.99
2018-08-06T01:50:41.545Z,99.99
2018-08-06T01:51:41.529Z,99.99
2018-08-06T01:52:41.509Z,99.99
2018-08-06T01:53:41.497Z,99.99
2018-08-06T01:54:41.484Z,99.99
2018-08-06T01:55:41.462Z,99.99
2018-08-06T01:56:41.452Z,99.99
2018-08-06T01:57:41.438Z,99.99
2018-08-06T01:58:41.407Z,99.99
2018-08-06T01:59:41.398Z,99.99
2018-08-06T02:00:41.391Z,99.99
2018-08-06T02:01:41.361Z,99.99
2018-08-06T02:02:41.349Z,99.99
2018-08-06T02:03:41.329Z,99.99
2018-08-06T02:04:41.317Z,99.99
2018-08-06T02:05:41.299Z,99.99
2018-08-06T02:06:41.282Z,99.99
2018-08-06T02:07:41.266Z,99.99
2018-08-06T02:08:41.258Z,99.99
2018-08-06T02:09:41.231Z,99.99
2018-08-06T02:10:41.215Z,99.99
2018-08-06T02:11:41.198Z,99.99
2018-08-06T02:12:41.176Z,99.99
2018-08-06T02:13:41.169Z,99.99
2018-08-06T02:14:41.160Z,99.99
2018-08-06T02:15:41.135Z,99.99
2018-08-06T02:16:41.109Z,99.99
2018-08-06T02:17:41.100Z,99.99
2018-08-06T02:18:41.076Z,99.99
2018-08-06T02:19:41.064Z,99.99
2018-08-06T02:20:41.338Z,99.99
2018-08-06T02:21:41.030Z,99.99
2018-08-06T02:22:41.016Z,99.99
2018-08-06T02:23:41.000Z,99.99
2018-08-06T02:24:40.987Z,99.99
2018-08-06T02:25:40.964Z,99.99
2018-08-06T02:26:40.955Z,99.99
2018-08-06T02:27:40.935Z,99.99
2018-08-06T02:28:40.932Z,99.99
2018-08-06T02:29:40.891Z,99.99
2018-08-06T02:30:40.888Z,99.99
2018-08-06T02:31:40.878Z,99.99
2018-08-06T02:32:40.851Z,99.99
2018-08-06T02:33:40.842Z,99.99
2018-08-06T02:34:40.807Z,99.99
2018-08-06T02:35:40.795Z,99.99
2018-08-06T02:36:40.782Z,99.99
2018-08-06T02:37:40.766Z,99.99
2018-08-06T02:38:40.742Z,99.99
2018-08-06T02:39:40.726Z,99.99
2018-08-06T02:40:40.714Z,99.99
2018-08-06T02:41:40.692Z,99.99
2018-08-06T02:42:40.680Z,99.99
2018-08-06T02:43:40.656Z,99.99
2018-08-06T02:44:40.643Z,99.99
2018-08-06T02:45:40.629Z,99.99
2018-08-06T02:46:40.611Z,99.99
2018-08-06T02:47:40.589Z,99.99
2018-08-06T02:48:40.579Z,99.99
2018-08-06T02:49:40.561Z,99.99
2018-08-06T02:50:40.538Z,99.99
2018-08-06T02:51:40.532Z,99.99
2018-08-06T02:52:40.513Z,99.99
2018-08-06T02:53:40.490Z,99.99
2018-08-06T02:54:40.471Z,99.99
2018-08-06T02:55:40.458Z,99.99
2018-08-06T02:56:40.440Z,99.99
2018-08-06T02:57:40.419Z,99.99
2018-08-06T02:58:40.411Z,99.99
2018-08-06T02:59:40.388Z,99.99
2018-08-06T03:00:40.368Z,99.99
2018-08-06T03:01:40.356Z,99.99
2018-08-06T03:02:40.340Z,99.99
2018-08-06T03:03:40.321Z,99.99
2018-08-06T03:04:40.305Z,99.99
2018-08-06T03:05:40.292Z,99.99
2018-08-06T03:06:40.271Z,99.99
2018-08-06T03:07:40.257Z,99.99
2018-08-06T03:08:40.244Z,99.99
2018-08-06T03:09:40.227Z,99.99
2018-08-06T03:10:40.205Z,99.99
2018-08-06T03:11:40.186Z,99.99
2018-08-06T03:12:40.173Z,99.99
2018-08-06T03:13:40.155Z,99.99
2018-08-06T03:14:40.138Z,99.99
2018-08-06T03:15:40.123Z,99.99
2018-08-06T03:16:42.055Z,99.99
2018-08-06T03:17:40.087Z,99.99
2018-08-06T03:18:40.065Z,99.99
2018-08-06T03:19:40.055Z,99.99
2018-08-06T03:20:40.049Z,99.99
2018-08-06T03:21:40.020Z,99.99
2018-08-06T03:22:39.997Z,99.99
2018-08-06T03:23:39.988Z,99.99
2018-08-06T03:24:39.965Z,99.99
2018-08-06T03:25:39.953Z,99.99
2018-08-06T03:26:39.939Z,99.99
2018-08-06T03:27:39.914Z,99.99
2018-08-06T03:28:39.902Z,99.99
2018-08-06T03:29:39.892Z,99.99
2018-08-06T03:30:39.860Z,99.99
2018-08-06T03:31:39.851Z,99.99
2018-08-06T03:32:39.828Z,99.99
2018-08-06T03:33:39.812Z,99.99
2018-08-06T03:34:39.793Z,99.99
2018-08-06T03:35:39.788Z,99.99
2018-08-06T03:36:39.764Z,99.99
2018-08-06T03:37:39.745Z,99.99
2018-08-06T03:38:39.732Z,99.99
2018-08-06T03:39:39.718Z,99.99
2018-08-06T03:40:39.693Z,99.99
2018-08-06T03:41:39.678Z,99.99
2018-08-06T03:42:39.659Z,99.99
2018-08-06T03:43:39.652Z,99.99
2018-08-06T03:44:39.626Z,99.99
2018-08-06T03:45:39.617Z,99.99
2018-08-06T03:46:39.600Z,99.99
2018-08-06T03:47:39.576Z,99.99
2018-08-06T03:48:39.554Z,99.99
2018-08-06T03:49:39.538Z,99.99
2018-08-06T03:50:39.526Z,99.99
2018-08-06T03:51:39.510Z,99.99
2018-08-06T03:52:39.544Z,99.99
2018-08-06T03:53:39.471Z,99.99
2018-08-06T03:54:39.468Z,99.99
2018-08-06T03:55:39.443Z,99.99
2018-08-06T03:56:39.423Z,99.99
2018-08-06T03:57:39.411Z,99.99
2018-08-06T03:58:39.391Z,99.99
2018-08-06T03:59:39.375Z,99.99
2018-08-06T04:00:39.357Z,99.99
2018-08-06T04:01:39.335Z,99.99
2018-08-06T04:02:39.318Z,99.99
2018-08-06T04:03:39.305Z,99.99
2018-08-06T04:04:39.284Z,99.99
2018-08-06T04:05:39.270Z,99.99
2018-08-06T04:06:39.268Z,99.99
2018-08-06T04:07:39.238Z,99.99
2018-08-06T04:08:39.213Z,99.99
2018-08-06T04:09:39.219Z,99.99
2018-08-06T04:10:39.191Z,99.99
2018-08-06T04:11:39.175Z,99.99
2018-08-06T04:12:39.154Z,99.99
2018-08-06T04:13:39.208Z,99.99
2018-08-06T04:14:39.123Z,99.99
2018-08-06T04:15:39.129Z,99.99
2018-08-06T04:16:39.104Z,99.99
2018-08-06T04:17:39.071Z,99.99
2018-08-06T04:18:39.056Z,99.99
2018-08-06T04:19:39.091Z,99.99
2018-08-06T04:20:39.017Z,99.99
2018-08-06T04:21:39.014Z,99.99
2018-08-06T04:22:38.986Z,99.99
2018-08-06T04:23:38.972Z,99.99
2018-08-06T04:24:38.951Z,99.99
2018-08-06T04:25:38.958Z,99.99
2018-08-06T04:26:38.948Z,99.99
2018-08-06T04:27:38.894Z,99.99
2018-08-06T04:28:38.885Z,99.99
2018-08-06T04:29:38.865Z,99.99
2018-08-06T04:30:38.848Z,99.99
2018-08-06T04:31:38.836Z,99.99
2018-08-06T04:32:38.840Z,99.99
2018-08-06T04:33:38.798Z,99.99
2018-08-06T04:34:38.811Z,99.99
2018-08-06T04:35:38.769Z,99.99
2018-08-06T04:36:38.752Z,99.99
2018-08-06T04:37:38.733Z,99.99
2018-08-06T04:38:38.812Z,99.99
2018-08-06T04:39:38.699Z,99.99
2018-08-06T04:40:38.688Z,99.99
2018-08-06T04:41:38.659Z,99.99
2018-08-06T04:42:38.643Z,99.99
2018-08-06T04:43:38.624Z,99.99
2018-08-06T04:44:38.615Z,99.99
2018-08-06T04:45:38.618Z,99.99
2018-08-06T04:46:38.590Z,99.99
2018-08-06T04:47:38.560Z,99.99
2018-08-06T04:48:38.547Z,99.99
2018-08-06T04:49:38.521Z,99.99
2018-08-06T04:50:38.518Z,99.99
2018-08-06T04:51:38.515Z,99.99
2018-08-06T04:52:38.479Z,99.99
2018-08-06T04:53:38.461Z,99.99
2018-08-06T04:54:38.446Z,99.99
2018-08-06T04:55:38.430Z,99.99
2018-08-06T04:56:38.412Z,99.99
2018-08-06T04:57:38.429Z,99.99
2018-08-06T04:58:38.400Z,99.99
2018-08-06T04:59:38.380Z,99.99
2018-08-06T05:00:38.367Z,99.99
2018-08-06T05:01:38.338Z,99.99
2018-08-06T05:02:38.329Z,99.99
2018-08-06T05:03:38.296Z,99.99
2018-08-06T05:04:38.294Z,99.99
2018-08-06T05:05:38.293Z,99.99
2018-08-06T05:06:38.265Z,99.99
2018-08-06T05:07:38.231Z,99.99
2018-08-06T05:08:38.220Z,99.99
2018-08-06T05:09:38.217Z,99.99
2018-08-06T05:10:38.175Z,99.99
2018-08-06T05:11:38.175Z,99.99
2018-08-06T05:12:38.155Z,99.99
2018-08-06T05:13:38.162Z,99.99
2018-08-06T05:14:38.114Z,99.99
2018-08-06T05:15:38.108Z,99.99
2018-08-06T05:16:38.079Z,99.99
2018-08-06T05:17:38.063Z,99.99
2018-08-06T05:18:38.060Z,99.99
2018-08-06T05:19:38.057Z,99.99
2018-08-06T05:20:38.047Z,99.99
2018-08-06T05:21:38.032Z,99.99
2018-08-06T05:22:37.989Z,99.99
2018-08-06T05:23:37.967Z,99.99
2018-08-06T05:24:38.010Z,99.99
2018-08-06T05:25:37.946Z,99.99
2018-08-06T05:26:37.927Z,99.99
2018-08-06T05:27:37.915Z,99.99
2018-08-06T05:28:37.904Z,99.99
2018-08-06T05:29:37.897Z,99.99
2018-08-06T05:30:37.866Z,99.99
2018-08-06T05:31:37.854Z,99.99
2018-08-06T05:32:37.840Z,99.99
2018-08-06T05:33:37.820Z,99.99
2018-08-06T05:34:37.812Z,99.99
2018-08-06T05:35:37.805Z,99.59
2018-08-06T05:36:37.811Z,99.40
2018-08-06T05:37:37.767Z,99.99
2018-08-06T05:38:37.748Z,99.78
2018-08-06T05:39:37.742Z,97.91
2018-08-06T05:40:37.720Z,99.06
2018-08-06T05:41:37.707Z,99.26
2018-08-06T05:42:37.700Z,95.70
2018-08-06T05:43:37.704Z,94.97
2018-08-06T05:44:37.662Z,96.32
2018-08-06T05:45:37.653Z,95.36
2018-08-06T05:46:37.643Z,96.12
2018-08-06T05:47:37.629Z,95.45
2018-08-06T05:48:37.643Z,95.45
2018-08-06T05:49:37.605Z,93.82
2018-08-06T05:50:37.592Z,94.15
2018-08-06T05:51:37.589Z,93.48
2018-08-06T05:52:37.567Z,92.52
2018-08-06T05:53:37.553Z,92.61
2018-08-06T05:54:37.537Z,91.50
2018-08-06T05:55:37.528Z,90.73
2018-08-06T05:56:37.535Z,90.34
2018-08-06T05:57:37.500Z,90.54
2018-08-06T05:58:37.490Z,91.79
2018-08-06T05:59:37.480Z,90.58
2018-08-06T06:00:37.467Z,89.14
2018-08-06T06:01:37.454Z,90.39
2018-08-06T06:02:37.449Z,89.14
2018-08-06T06:03:37.427Z,88.75
2018-08-06T06:04:37.417Z,88.75
2018-08-06T06:05:37.400Z,88.37
2018-08-06T06:06:37.391Z,89.81
2018-08-06T06:07:37.397Z,87.79
2018-08-06T06:08:37.365Z,88.17
2018-08-06T06:09:37.376Z,89.04
2018-08-06T06:10:37.340Z,88.41
2018-08-06T06:11:37.331Z,87.88
2018-08-06T06:12:37.331Z,87.64
2018-08-06T06:13:37.302Z,87.06
2018-08-06T06:14:37.295Z,86.96
2018-08-06T06:15:37.281Z,88.22
2018-08-06T06:16:37.279Z,88.22
2018-08-06T06:17:37.272Z,88.79
2018-08-06T06:18:37.248Z,87.83
2018-08-06T06:19:38.063Z,87.93
2018-08-06T06:20:37.245Z,86.10
2018-08-06T06:21:37.219Z,86.10
2018-08-06T06:22:37.203Z,85.08
2018-08-06T06:23:37.193Z,86.24
2018-08-06T06:24:37.185Z,84.79
2018-08-06T06:25:37.232Z,85.08
2018-08-06T06:26:37.156Z,84.59
2018-08-06T06:27:37.146Z,84.50
2018-08-06T06:28:37.160Z,84.79
2018-08-06T06:29:37.146Z,84.89
2018-08-06T06:30:37.108Z,83.29
2018-08-06T06:31:37.120Z,85.22
2018-08-06T06:32:37.080Z,83.77
2018-08-06T06:33:37.076Z,82.90
2018-08-06T06:34:37.163Z,84.25
2018-08-06T06:35:37.051Z,82.71
2018-08-06T06:36:37.057Z,82.42
2018-08-06T06:37:37.024Z,81.84
2018-08-06T06:38:37.025Z,83.00
2018-08-06T06:39:37.024Z,83.09
2018-08-06T06:40:36.997Z,82.13
2018-08-06T06:41:37.029Z,84.16
2018-08-06T06:42:36.983Z,81.65
2018-08-06T06:43:36.965Z,83.33
2018-08-06T06:44:36.958Z,81.59
2018-08-06T06:45:36.948Z,80.43
2018-08-06T06:46:36.929Z,80.91
2018-08-06T06:47:36.923Z,80.82
2018-08-06T06:48:36.926Z,82.26
2018-08-06T06:49:36.904Z,79.85
2018-08-06T06:50:36.913Z,79.66
2018-08-06T06:51:36.885Z,82.21
2018-08-06T06:52:36.872Z,82.11
2018-08-06T06:53:36.850Z,79.66
2018-08-06T06:54:36.838Z,83.27
2018-08-06T06:55:36.833Z,82.89
2018-08-06T06:56:36.835Z,79.89
2018-08-06T06:57:36.808Z,79.89
2018-08-06T06:58:36.807Z,78.44
2018-08-06T06:59:36.796Z,81.24
2018-08-06T07:00:36.779Z,82.11
2018-08-06T07:01:36.773Z,80.95
2018-08-06T07:02:36.762Z,81.44
2018-08-06T07:03:36.756Z,79.60
2018-08-06T07:04:36.734Z,78.19
2018-08-06T07:05:36.733Z,81.19
2018-08-06T07:06:36.717Z,78.58
2018-08-06T07:07:36.711Z,79.54
2018-08-06T07:08:36.701Z,80.32
2018-08-06T07:09:36.692Z,80.61
2018-08-06T07:10:36.676Z,79.20
2018-08-06T07:11:36.672Z,77.61
2018-08-06T07:12:36.656Z,82.10
2018-08-06T07:13:36.703Z,79.58
2018-08-06T07:14:36.644Z,76.87
2018-08-06T07:15:36.637Z,77.26
2018-08-06T07:16:36.624Z,77.45
2018-08-06T07:17:36.608Z,75.23
2018-08-06T07:18:36.595Z,74.85
2018-08-06T07:19:36.589Z,79.10
2018-08-06T07:20:36.583Z,76.39
2018-08-06T07:21:36.573Z,76.24
2018-08-06T07:22:36.559Z,78.66
2018-08-06T07:23:36.552Z,75.95
2018-08-06T07:24:36.543Z,74.73
2018-08-06T07:25:36.530Z,77.63
2018-08-06T07:26:36.533Z,74.34
2018-08-06T07:27:36.520Z,73.27
2018-08-06T07:28:36.517Z,75.63
2018-08-06T07:29:36.508Z,74.76
2018-08-06T07:30:36.491Z,72.73
2018-08-06T07:31:36.485Z,72.77
2018-08-06T07:32:36.472Z,71.41
2018-08-06T07:33:36.494Z,72.24
2018-08-06T07:34:36.462Z,71.12
2018-08-06T07:35:36.458Z,71.41
2018-08-06T07:36:36.450Z,71.25
2018-08-06T07:37:36.434Z,71.15
2018-08-06T07:38:36.437Z,68.28
2018-08-06T07:39:36.422Z,69.83
2018-08-06T07:40:36.418Z,67.86
2018-08-06T07:41:36.424Z,67.47
2018-08-06T07:42:36.413Z,63.78
2018-08-06T07:43:36.399Z,64.30
2018-08-06T07:44:36.389Z,68.51
2018-08-06T07:45:36.391Z,65.23
2018-08-06T07:46:36.387Z,63.42
2018-08-06T07:47:36.382Z,61.54
2018-08-06T07:48:36.372Z,62.51
2018-08-06T07:49:36.464Z,61.54
2018-08-06T07:50:36.350Z,64.10
2018-08-06T07:51:36.353Z,60.50
2018-08-06T07:52:36.336Z,59.43
2018-08-06T07:53:36.330Z,59.66
2018-08-06T07:54:36.325Z,61.41
2018-08-06T07:55:36.327Z,60.11
2018-08-06T07:56:36.320Z,59.66
2018-08-06T07:57:36.308Z,61.02
2018-08-06T07:58:36.308Z,60.36
2018-08-06T07:59:36.308Z,60.17
2018-08-06T08:00:36.299Z,58.51
2018-08-06T08:01:36.301Z,58.74
2018-08-06T08:02:36.279Z,60.00
2018-08-06T08:03:36.284Z,57.84
2018-08-06T08:04:36.276Z,58.87
2018-08-06T08:05:36.266Z,59.91
2018-08-06T08:06:36.270Z,58.22
2018-08-06T08:07:36.260Z,58.61
2018-08-06T08:08:36.259Z,57.84
2018-08-06T08:09:36.257Z,59.85
2018-08-06T08:10:36.244Z,59.85
2018-08-06T08:11:36.241Z,59.05
2018-08-06T08:12:36.238Z,61.96
2018-08-06T08:13:36.235Z,58.69
2018-08-06T08:14:36.225Z,58.49
2018-08-06T08:15:36.215Z,59.98
2018-08-06T08:16:36.231Z,58.61
2018-08-06T08:17:36.215Z,59.10
2018-08-06T08:18:36.205Z,58.42
2018-08-06T08:19:36.257Z,59.81
2018-08-06T08:20:36.197Z,58.51
2018-08-06T08:21:36.190Z,58.15
2018-08-06T08:22:36.184Z,57.57
2018-08-06T08:23:36.202Z,58.06
2018-08-06T08:24:36.179Z,58.77
2018-08-06T08:25:36.172Z,56.33
2018-08-06T08:26:36.171Z,57.28
2018-08-06T08:27:36.171Z,60.00
2018-08-06T08:28:36.164Z,56.60
2018-08-06T08:29:36.160Z,60.42
2018-08-06T08:30:36.154Z,57.47
2018-08-06T08:31:36.157Z,60.42
2018-08-06T08:32:36.164Z,58.77
2018-08-06T08:33:36.139Z,57.50
2018-08-06T08:34:36.131Z,55.48
2018-08-06T08:35:36.131Z,56.07
2018-08-06T08:36:36.125Z,55.48
2018-08-06T08:37:36.129Z,55.38
2018-08-06T08:38:36.122Z,56.46
2018-08-06T08:39:36.165Z,55.87
2018-08-06T08:40:36.108Z,54.19
2018-08-06T08:41:36.109Z,55.85
2018-08-06T08:42:36.106Z,58.58
2018-08-06T08:43:36.096Z,54.48
2018-08-06T08:44:36.100Z,57.40
2018-08-06T08:45:36.119Z,56.92
2018-08-06T08:46:36.087Z,56.33
2018-08-06T08:47:36.089Z,55.85
2018-08-06T08:48:36.079Z,54.50
2018-08-06T08:49:36.076Z,57.04
2018-08-06T08:50:36.078Z,54.90
2018-08-06T08:51:36.062Z,54.63
2018-08-06T08:52:36.124Z,54.53
2018-08-06T08:53:36.071Z,57.10
2018-08-06T08:54:36.049Z,53.36
2018-08-06T08:55:36.069Z,53.34
2018-08-06T08:56:36.054Z,56.68
2018-08-06T08:57:36.052Z,56.85
2018-08-06T08:58:36.099Z,55.38
2018-08-06T08:59:36.068Z,54.83
2018-08-06T09:00:36.033Z,52.39
2018-08-06T09:01:36.033Z,55.80
2018-08-06T09:02:36.036Z,57.10
2018-08-06T09:03:36.024Z,57.20
2018-08-06T09:04:36.021Z,55.44
2018-08-06T09:05:36.018Z,54.85
2018-08-06T09:06:36.014Z,53.85
2018-08-06T09:07:36.008Z,55.93
2018-08-06T09:08:36.001Z,53.27
2018-08-06T09:09:36.007Z,55.32
2018-08-06T09:10:35.999Z,56.97
2018-08-06T09:11:36.018Z,54.05
2018-08-06T09:12:35.995Z,53.95
2018-08-06T09:13:35.989Z,54.24
2018-08-06T09:14:35.982Z,52.68
2018-08-06T09:15:35.992Z,54.05
2018-08-06T09:16:35.969Z,56.97
2018-08-06T09:17:35.966Z,52.29
2018-08-06T09:18:35.966Z,52.29
2018-08-06T09:19:35.984Z,53.75
2018-08-06T09:20:35.979Z,53.78
2018-08-06T09:21:35.956Z,54.71
2018-08-06T09:22:35.956Z,51.46
2018-08-06T09:23:35.946Z,54.20
2018-08-06T09:24:35.947Z,52.73
2018-08-06T09:25:35.936Z,52.17
2018-08-06T09:26:35.929Z,55.62
2018-08-06T09:27:35.927Z,52.10
2018-08-06T09:28:35.926Z,50.24
2018-08-06T09:29:35.921Z,52.17
2018-08-06T09:30:35.917Z,50.81
2018-08-06T09:31:35.913Z,50.98
2018-08-06T09:32:35.908Z,55.18
2018-08-06T09:33:35.912Z,56.20
2018-08-06T09:34:35.908Z,52.59
2018-08-06T09:35:35.898Z,49.90
2018-08-06T09:36:35.904Z,51.86
2018-08-06T09:37:35.920Z,53.74
2018-08-06T09:38:35.896Z,53.34
2018-08-06T09:39:35.888Z,51.68
2018-08-06T09:40:35.929Z,53.83
2018-08-06T09:41:35.892Z,53.66
2018-08-06T09:42:35.892Z,52.51
2018-08-06T09:43:35.905Z,52.81
2018-08-06T09:44:35.885Z,50.85
2018-08-06T09:45:35.872Z,50.44
2018-08-06T09:46:35.873Z,50.93
2018-08-06T09:47:35.927Z,51.25
2018-08-06T09:48:35.877Z,50.34
2018-08-06T09:49:35.866Z,50.51
2018-08-06T09:50:35.853Z,50.51
2018-08-06T09:51:35.850Z,50.22
2018-08-06T09:52:35.878Z,50.71
2018-08-06T09:53:35.847Z,51.20
2018-08-06T09:54:35.841Z,51.29
2018-08-06T09:55:35.831Z,51.78
2018-08-06T09:56:35.841Z,51.10
2018-08-06T09:57:35.838Z,52.08
2018-08-06T09:58:35.832Z,50.10
2018-08-06T09:59:35.834Z,52.47
2018-08-06T10:00:35.819Z,50.81
2018-08-06T10:01:35.844Z,50.34
2018-08-06T10:02:35.838Z,53.49
2018-08-06T10:03:35.863Z,54.89
2018-08-06T10:04:35.828Z,51.15
2018-08-06T10:05:35.871Z,50.83
2018-08-06T10:06:35.918Z,50.10
2018-08-06T10:07:35.797Z,51.98
2018-08-06T10:08:35.805Z,54.71
2018-08-06T10:09:35.814Z,52.88
2018-08-06T10:10:35.818Z,49.55
2018-08-06T10:11:35.786Z,50.93
2018-08-06T10:12:35.799Z,52.20
2018-08-06T10:13:35.810Z,51.81
2018-08-06T10:14:35.789Z,55.74
2018-08-06T10:15:35.821Z,52.83
2018-08-06T10:16:35.773Z,49.77
2018-08-06T10:17:35.764Z,53.72
2018-08-06T10:18:35.767Z,49.90
2018-08-06T10:19:35.799Z,50.76
2018-08-06T10:20:35.778Z,50.85
2018-08-06T10:21:35.780Z,50.37
2018-08-06T10:22:35.770Z,50.29
2018-08-06T10:23:35.783Z,52.44
2018-08-06T10:24:35.812Z,50.42
2018-08-06T10:25:35.754Z,48.85
2018-08-06T10:26:35.767Z,49.51
2018-08-06T10:27:35.750Z,50.20
2018-08-06T10:28:35.770Z,50.29
2018-08-06T10:29:35.741Z,50.78
2018-08-06T10:30:35.804Z,53.74
2018-08-06T10:31:35.744Z,50.73
2018-08-06T10:32:35.767Z,50.44
2018-08-06T10:33:35.739Z,50.44
2018-08-06T10:34:35.738Z,50.15
2018-08-06T10:35:35.738Z,52.56
2018-08-06T10:36:35.744Z,48.94
2018-08-06T10:37:35.746Z,49.53
2018-08-06T10:38:35.736Z,47.65
2018-08-06T10:39:35.735Z,50.29
2018-08-06T10:40:35.735Z,49.43
2018-08-06T10:41:35.732Z,48.46
2018-08-06T10:42:35.729Z,49.65
2018-08-06T10:43:35.735Z,48.97
2018-08-06T10:44:35.827Z,48.58
2018-08-06T10:45:35.741Z,48.19
2018-08-06T10:46:35.728Z,48.38
2018-08-06T10:47:35.744Z,46.81
2018-08-06T10:48:35.752Z,53.67
2018-08-06T10:49:35.741Z,47.30
2018-08-06T10:50:35.746Z,48.09
2018-08-06T10:51:35.752Z,50.27
2018-08-06T10:52:35.741Z,47.62
2018-08-06T10:53:35.751Z,52.45
2018-08-06T10:54:35.748Z,49.41
2018-08-06T10:55:35.744Z,46.66
2018-08-06T10:56:35.769Z,50.32
2018-08-06T10:57:35.745Z,49.33
2018-08-06T10:58:35.745Z,48.25
2018-08-06T10:59:35.792Z,49.04
2018-08-06T11:00:35.757Z,49.24
2018-08-06T11:01:35.748Z,48.43
2018-08-06T11:02:35.751Z,47.16
2018-08-06T11:03:35.764Z,49.63
2018-08-06T11:04:35.761Z,49.75
2018-08-06T11:05:35.761Z,47.32
2018-08-06T11:06:35.818Z,44.23
2018-08-06T11:07:35.771Z,45.78
2018-08-06T11:08:35.771Z,45.68
2018-08-06T11:09:35.784Z,49.60
2018-08-06T11:10:35.777Z,46.08
2018-08-06T11:11:35.777Z,44.38
2018-08-06T11:12:35.790Z,46.08
2018-08-06T11:13:35.800Z,50.49
2018-08-06T11:14:35.803Z,47.47
2018-08-06T11:15:35.807Z,47.30
2018-08-06T11:16:35.812Z,46.02
2018-08-06T11:17:35.800Z,51.25
2018-08-06T11:18:35.809Z,48.40
2018-08-06T11:19:35.809Z,45.85
2018-08-06T11:20:35.903Z,48.72
2018-08-06T11:21:35.820Z,46.56
2018-08-06T11:22:35.825Z,44.69
2018-08-06T11:23:35.832Z,46.85
2018-08-06T11:24:35.832Z,44.91
2018-08-06T11:25:35.884Z,44.32
2018-08-06T11:26:35.841Z,42.28
2018-08-06T11:27:35.851Z,46.31
2018-08-06T11:28:35.860Z,43.83
2018-08-06T11:29:35.864Z,45.79
2018-08-06T11:30:35.860Z,45.52
2018-08-06T11:31:35.877Z,44.54
2018-08-06T11:32:35.874Z,42.28
2018-08-06T11:33:35.877Z,42.38
2018-08-06T11:34:35.890Z,45.74
2018-08-06T11:35:35.890Z,43.16
2018-08-06T11:36:35.933Z,42.65
2018-08-06T11:37:35.913Z,45.89
2018-08-06T11:38:35.913Z,44.62
2018-08-06T11:39:35.915Z,41.37
2018-08-06T11:40:35.921Z,42.43
2018-08-06T11:41:35.931Z,45.40
2018-08-06T11:42:35.937Z,43.36
2018-08-06T11:43:35.944Z,47.02
2018-08-06T11:44:35.947Z,43.10
2018-08-06T11:45:35.979Z,43.57
2018-08-06T11:46:35.964Z,46.65
2018-08-06T11:47:35.987Z,42.91
2018-08-06T11:48:35.976Z,42.02
2018-08-06T11:49:35.993Z,41.51
2018-08-06T11:50:35.995Z,43.40
2018-08-06T11:51:35.995Z,42.81
2018-08-06T11:52:36.009Z,43.62
2018-08-06T11:53:36.012Z,42.26
2018-08-06T11:54:36.024Z,44.45
2018-08-06T11:55:36.031Z,40.80
2018-08-06T11:56:36.065Z,42.68
2018-08-06T11:57:36.047Z,41.91
2018-08-06T11:58:36.067Z,41.22
2018-08-06T11:59:36.076Z,40.15
2018-08-06T12:00:36.069Z,38.16
2018-08-06T12:01:36.076Z,40.25
2018-08-06T12:02:36.076Z,39.36
2018-08-06T12:03:36.092Z,40.98
2018-08-06T12:04:36.109Z,38.41
2018-08-06T12:05:36.101Z,39.38
2018-08-06T12:06:36.111Z,40.96
2018-08-06T12:07:36.121Z,39.26
2018-08-06T12:08:36.127Z,40.17
2018-08-06T12:09:36.137Z,38.08
2018-08-06T12:10:36.140Z,38.45
2018-08-06T12:11:36.146Z,40.13
2018-08-06T12:12:36.176Z,40.39
2018-08-06T12:13:36.227Z,41.09
2018-08-06T12:14:36.169Z,40.51
2018-08-06T12:15:36.185Z,41.91
2018-08-06T12:16:36.195Z,39.03
2018-08-06T12:17:36.201Z,42.50
2018-08-06T12:18:36.219Z,43.90
2018-08-06T12:19:36.208Z,41.14
2018-08-06T12:20:36.224Z,42.34
2018-08-06T12:21:36.234Z,40.17
2018-08-06T12:22:36.236Z,38.28
2018-08-06T12:23:36.249Z,38.47
2018-08-06T12:24:36.258Z,40.15
2018-08-06T12:25:36.265Z,38.57
2018-08-06T12:26:36.287Z,37.73
2018-08-06T12:27:36.282Z,38.81
2018-08-06T12:28:36.297Z,45.56
2018-08-06T12:29:36.300Z,41.35
2018-08-06T12:30:36.304Z,42.63
2018-08-06T12:31:36.382Z,40.47
2018-08-06T12:32:36.329Z,41.96
2018-08-06T12:33:36.326Z,40.78
2018-08-06T12:34:36.332Z,40.51
2018-08-06T12:35:36.348Z,43.17
2018-08-06T12:36:36.345Z,42.42
2018-08-06T12:37:36.357Z,40.47
2018-08-06T12:38:36.358Z,40.90
2018-08-06T12:39:36.374Z,40.23
2018-08-06T12:40:36.375Z,39.22
2018-08-06T12:41:36.383Z,37.17
2018-08-06T12:42:36.392Z,37.47
2018-08-06T12:43:36.394Z,38.79
2018-08-06T12:44:36.409Z,41.00
2018-08-06T12:45:36.409Z,42.11
2018-08-06T12:46:36.414Z,39.64
2018-08-06T12:47:36.457Z,39.12
2018-08-06T12:48:36.440Z,37.66
2018-08-06T12:49:36.454Z,36.67
2018-08-06T12:50:36.452Z,37.94
2018-08-06T12:51:36.509Z,37.07
2018-08-06T12:52:36.470Z,36.27